createdAt,value
2023-01-20T00:02:04.501Z,7.47
2023-01-20T00:04:32.372Z,7.50
2023-01-20T00:07:00.244Z,7.20
2023-01-20T00:09:28.201Z,7.80
2023-01-20T00:11:57.478Z,8.05
2023-01-20T00:14:25.641Z,7.18
2023-01-20T00:16:53.539Z,7.20
2023-01-20T00:19:21.409Z,7.75
2023-01-20T00:21:49.315Z,7.65
2023-01-20T00:24:17.388Z,8.85
2023-01-20T00:26:47.767Z,6.70
2023-01-20T00:29:17.069Z,8.07
2023-01-20T00:31:45.046Z,8.20
2023-01-20T00:34:12.994Z,8.05
2023-01-20T00:36:40.853Z,7.57
2023-01-20T00:39:08.702Z,7.45
2023-01-20T00:41:36.595Z,8.02
2023-01-20T00:44:04.496Z,8.60
2023-01-20T00:46:36.462Z,8.32
2023-01-20T00:49:04.411Z,8.10
2023-01-20T00:51:32.269Z,8.32
2023-01-20T00:54:00.155Z,7.80
2023-01-20T00:56:28.198Z,8.32
2023-01-20T00:58:56.251Z,7.80
2023-01-20T01:01:24.769Z,8.05
2023-01-20T01:03:55.298Z,8.48
2023-01-20T01:06:23.805Z,7.95
2023-01-20T01:08:51.667Z,9.18
2023-01-20T01:11:19.655Z,7.47
2023-01-20T01:13:47.467Z,8.43
2023-01-20T01:16:16.930Z,7.90
2023-01-20T01:18:44.905Z,6.22
2023-01-20T01:21:16.207Z,7.60
2023-01-20T01:23:44.574Z,7.75
2023-01-20T01:26:12.600Z,7.25
2023-01-20T01:28:40.740Z,7.72
2023-01-20T01:31:09.409Z,7.85
2023-01-20T01:33:37.805Z,7.75
2023-01-20T01:36:06.552Z,7.93
2023-01-20T01:38:36.502Z,7.80
2023-01-20T01:43:33.873Z,7.28
2023-01-20T01:46:02.091Z,7.90
2023-01-20T01:48:34.819Z,7.40
2023-01-20T01:51:06.502Z,7.82
2023-01-20T01:53:41.301Z,7.65
2023-01-20T01:56:10.721Z,7.40
2023-01-20T01:58:43.221Z,6.30
2023-01-20T02:01:11.501Z,7.47
2023-01-20T02:03:45.326Z,8.15
2023-01-20T02:06:15.019Z,8.20
2023-01-20T02:08:44.403Z,7.18
2023-01-20T02:11:12.381Z,7.55
2023-01-20T02:13:40.715Z,6.97
2023-01-20T02:16:16.696Z,6.85
2023-01-20T02:19:06.630Z,7.53
2023-01-20T02:22:01.200Z,7.18
2023-01-20T02:25:02.260Z,6.97
2023-01-20T02:27:51.715Z,7.82
2023-01-20T02:30:51.840Z,7.18
2023-01-20T02:33:27.895Z,6.97
2023-01-20T02:36:01.063Z,6.78
2023-01-20T02:38:37.174Z,5.80
2023-01-20T02:41:12.903Z,5.90
2023-01-20T02:43:48.113Z,6.22
2023-01-20T02:46:24.554Z,7.15
2023-01-20T02:49:00.467Z,5.95
2023-01-20T02:51:38.015Z,5.85
2023-01-20T02:54:09.544Z,6.68
2023-01-20T02:56:38.702Z,6.00
2023-01-20T02:59:11.574Z,6.32
2023-01-20T03:01:48.637Z,5.20
2023-01-20T03:04:22.827Z,5.70
2023-01-20T03:06:54.611Z,5.45
2023-01-20T03:09:37.477Z,6.50
2023-01-20T03:12:13.109Z,6.03
2023-01-20T03:14:41.209Z,5.22
2023-01-20T03:17:09.233Z,5.90
2023-01-20T03:19:38.449Z,5.47
2023-01-20T03:22:06.969Z,5.93
2023-01-20T03:24:39.004Z,5.97
2023-01-20T03:27:07.235Z,5.60
2023-01-20T03:29:35.275Z,5.47
2023-01-20T03:32:04.977Z,5.47
2023-01-20T03:34:35.934Z,5.15
2023-01-20T03:37:06.688Z,5.18
2023-01-20T03:39:39.690Z,5.07
2023-01-20T03:42:12.314Z,4.53
2023-01-20T03:44:53.128Z,5.57
2023-01-20T03:47:32.857Z,4.80
2023-01-20T03:50:08.769Z,4.43
2023-01-20T03:52:47.655Z,4.40
2023-01-20T03:55:20.083Z,4.75
2023-01-20T03:57:56.040Z,5.43
2023-01-20T04:00:27.182Z,4.30
2023-01-20T04:03:00.239Z,5.07
2023-01-20T04:05:29.599Z,4.03
2023-01-20T04:08:03.425Z,3.55
2023-01-20T04:10:33.856Z,4.30
2023-01-20T04:13:01.776Z,4.18
2023-01-20T04:15:33.954Z,4.68
2023-01-20T04:18:12.410Z,3.92
2023-01-20T04:20:40.577Z,3.95
2023-01-20T04:23:15.294Z,3.95
2023-01-20T04:25:45.667Z,4.15
2023-01-20T04:28:13.583Z,4.82
2023-01-20T04:30:41.638Z,3.65
2023-01-20T04:33:09.541Z,3.90
2023-01-20T04:35:37.415Z,3.70
2023-01-20T04:38:05.320Z,4.55
2023-01-20T04:40:34.661Z,4.35
2023-01-20T04:43:02.780Z,2.78
2023-01-20T04:45:30.735Z,4.22
2023-01-20T04:47:58.645Z,4.03
2023-01-20T04:50:26.664Z,4.00
2023-01-20T04:52:56.732Z,4.70
2023-01-20T04:55:26.470Z,4.13
2023-01-20T04:57:55.824Z,4.80
2023-01-20T05:00:23.795Z,4.00
2023-01-20T05:02:53.570Z,4.47
2023-01-20T05:05:21.402Z,4.13
2023-01-20T05:07:53.140Z,4.82
2023-01-20T05:10:21.282Z,4.18
2023-01-20T05:12:49.180Z,3.72
2023-01-20T05:15:18.625Z,3.55
2023-01-20T05:17:46.512Z,3.38
2023-01-20T05:20:15.635Z,3.83
2023-01-20T05:22:43.568Z,4.10
2023-01-20T05:25:11.436Z,4.00
2023-01-20T05:27:39.407Z,3.38
2023-01-20T05:30:08.763Z,3.05
2023-01-20T05:32:38.094Z,3.63
2023-01-20T05:35:07.078Z,3.28
2023-01-20T05:37:35.069Z,3.67
2023-01-20T05:40:03.102Z,3.70
2023-01-20T05:42:33.300Z,3.63
2023-01-20T05:45:01.228Z,4.13
2023-01-20T05:47:29.708Z,4.63
2023-01-20T05:49:59.159Z,4.05
2023-01-20T05:52:27.133Z,3.78
2023-01-20T05:54:55.086Z,4.50
2023-01-20T05:57:25.341Z,4.10
2023-01-20T05:59:53.367Z,4.50
2023-01-20T06:02:21.322Z,3.90
2023-01-20T06:04:49.553Z,4.07
2023-01-20T06:07:18.898Z,3.60
2023-01-20T06:09:46.767Z,3.45
2023-01-20T06:12:14.727Z,3.65
2023-01-20T06:14:42.589Z,3.75
2023-01-20T06:17:10.912Z,3.80
2023-01-20T06:19:40.416Z,3.45
2023-01-20T06:22:09.420Z,3.70
2023-01-20T06:24:38.665Z,4.35
2023-01-20T06:27:06.551Z,4.75
2023-01-20T06:29:36.122Z,3.83
2023-01-20T06:32:04.135Z,3.78
2023-01-20T06:34:32.184Z,3.28
2023-01-20T06:37:01.845Z,3.72
2023-01-20T06:39:29.780Z,3.55
2023-01-20T06:42:00.476Z,3.40
2023-01-20T06:44:31.792Z,3.85
2023-01-20T06:46:59.702Z,6.45
2023-01-20T06:49:27.755Z,6.07
2023-01-20T06:51:55.872Z,4.93
2023-01-20T06:54:23.860Z,4.03
2023-01-20T06:56:51.690Z,3.80
2023-01-20T06:59:20.883Z,4.45
2023-01-20T07:01:49.008Z,3.22
2023-01-20T07:04:16.952Z,3.35
2023-01-20T07:06:44.951Z,4.03
2023-01-20T07:09:14.580Z,3.53
2023-01-20T07:11:42.567Z,3.70
2023-01-20T07:14:10.474Z,3.33
2023-01-20T07:16:40.035Z,4.03
2023-01-20T07:19:07.926Z,5.13
2023-01-20T07:21:35.778Z,3.55
2023-01-20T07:24:04.160Z,3.80
2023-01-20T07:26:32.492Z,3.10
2023-01-20T07:29:00.731Z,3.08
2023-01-20T07:31:31.319Z,2.97
2023-01-20T07:34:00.829Z,3.20
2023-01-20T07:36:29.114Z,2.88
2023-01-20T07:38:57.023Z,2.40
2023-01-20T07:41:24.899Z,3.20
2023-01-20T07:43:54.672Z,2.58
2023-01-20T07:46:23.302Z,2.45
2023-01-20T07:48:51.241Z,3.20
2023-01-20T07:51:20.510Z,3.10
2023-01-20T07:53:51.002Z,2.55
2023-01-20T07:56:21.160Z,2.47
2023-01-20T07:58:50.646Z,2.80
2023-01-20T08:01:20.855Z,2.83
2023-01-20T08:06:18.892Z,2.45
2023-01-20T08:11:17.675Z,2.17
2023-01-20T08:13:45.716Z,2.28
2023-01-20T08:16:15.968Z,2.83
2023-01-20T08:18:44.644Z,2.70
2023-01-20T08:21:19.873Z,2.28
2023-01-20T08:23:49.412Z,2.72
2023-01-20T08:26:17.384Z,3.00
2023-01-20T08:28:45.293Z,2.85
2023-01-20T08:31:15.259Z,2.50
2023-01-20T08:36:14.544Z,2.65
2023-01-20T08:38:42.801Z,2.50
2023-01-20T08:41:14.725Z,3.13
2023-01-20T08:43:43.081Z,3.55
2023-01-20T08:46:13.865Z,3.45
2023-01-20T08:48:43.716Z,2.83
2023-01-20T08:51:14.396Z,3.60
2023-01-20T08:53:43.279Z,3.67
2023-01-20T08:56:15.986Z,3.70
2023-01-20T08:58:44.936Z,4.13
2023-01-20T09:01:14.844Z,3.92
2023-01-20T09:03:49.440Z,3.40
2023-01-20T09:06:27.837Z,3.20
2023-01-20T09:08:55.832Z,3.30
2023-01-20T09:11:27.733Z,3.83
2023-01-20T09:13:56.111Z,3.95
2023-01-20T09:16:23.957Z,3.72
2023-01-20T09:18:51.792Z,3.28
2023-01-20T09:21:19.720Z,3.13
2023-01-20T09:23:48.251Z,3.20
2023-01-20T09:26:29.728Z,3.38
2023-01-20T09:29:09.533Z,3.53
2023-01-20T09:31:38.555Z,3.60
2023-01-20T09:34:06.609Z,3.17
2023-01-20T09:36:34.567Z,3.60
2023-01-20T09:39:19.979Z,3.50
2023-01-20T09:42:06.779Z,3.47
2023-01-20T09:44:49.608Z,3.75
2023-01-20T09:47:31.022Z,3.65
2023-01-20T09:50:39.748Z,3.28
2023-01-20T09:53:15.672Z,3.25
2023-01-20T09:55:48.272Z,3.40
2023-01-20T09:58:26.855Z,3.42
2023-01-20T10:01:07.147Z,3.53
2023-01-20T10:03:41.024Z,3.88
2023-01-20T10:06:14.183Z,3.78
2023-01-20T10:09:04.255Z,3.65
2023-01-20T10:11:39.230Z,4.20
2023-01-20T10:14:16.119Z,4.32
2023-01-20T10:16:52.706Z,4.05
2023-01-20T10:19:28.097Z,4.20
2023-01-20T10:22:04.144Z,4.18
2023-01-20T10:24:36.153Z,4.07
2023-01-20T10:27:05.609Z,4.18
2023-01-20T10:29:36.585Z,4.68
2023-01-20T10:32:12.582Z,4.28
2023-01-20T10:34:46.265Z,4.90
2023-01-20T10:37:15.377Z,4.53
2023-01-20T10:39:49.960Z,3.93
2023-01-20T10:42:19.038Z,3.88
2023-01-20T10:44:51.038Z,3.97
2023-01-20T10:47:34.950Z,3.55
2023-01-20T10:50:24.474Z,3.85
2023-01-20T10:53:08.267Z,3.53
2023-01-20T10:55:47.183Z,4.85
2023-01-20T10:58:22.405Z,3.90
2023-01-20T11:00:51.502Z,4.60
2023-01-20T11:03:24.124Z,5.07
2023-01-20T11:05:53.316Z,4.18
2023-01-20T11:08:23.827Z,4.67
2023-01-20T11:10:56.281Z,4.70
2023-01-20T11:13:24.472Z,4.97
2023-01-20T11:15:57.572Z,5.13
2023-01-20T11:18:29.464Z,4.65
2023-01-20T11:21:03.665Z,4.95
2023-01-20T11:23:37.759Z,5.32
2023-01-20T11:26:16.849Z,5.90
2023-01-20T11:28:56.766Z,5.40
2023-01-20T11:31:40.134Z,6.47
2023-01-20T11:34:23.326Z,6.95
2023-01-20T11:36:51.810Z,7.75
2023-01-20T11:39:30.576Z,8.23
2023-01-20T11:42:15.471Z,7.60
2023-01-20T11:44:44.889Z,8.15
2023-01-20T11:47:34.424Z,9.55
2023-01-20T11:50:28.250Z,8.60
2023-01-20T11:53:13.565Z,7.80
2023-01-20T11:55:49.463Z,8.05
2023-01-20T11:58:20.636Z,8.55
2023-01-20T12:00:50.802Z,8.90
2023-01-20T12:06:20.239Z,9.23
2023-01-20T12:08:51.188Z,9.55
2023-01-20T12:11:24.748Z,9.35
2023-01-20T12:14:28.640Z,10.02
2023-01-20T12:17:06.839Z,10.40
2023-01-20T12:19:43.340Z,9.52
2023-01-20T12:22:17.446Z,9.80
2023-01-20T12:25:10.557Z,10.65
2023-01-20T12:27:45.148Z,9.68
2023-01-20T12:30:28.638Z,9.88
2023-01-20T12:32:56.720Z,9.63
2023-01-20T12:35:28.834Z,10.27
2023-01-20T12:38:02.516Z,11.38
2023-01-20T12:40:40.714Z,8.52
2023-01-20T12:43:33.805Z,8.25
2023-01-20T12:46:27.226Z,7.18
2023-01-20T12:49:15.845Z,7.65
2023-01-20T12:51:57.767Z,7.03
2023-01-20T12:55:03.895Z,7.57
2023-01-20T12:57:48.359Z,7.78
2023-01-20T13:00:49.365Z,8.32
2023-01-20T13:03:45.917Z,8.60
2023-01-20T13:06:34.732Z,9.60
2023-01-20T13:09:09.432Z,9.75
2023-01-20T13:11:51.438Z,10.40
2023-01-20T13:14:23.043Z,10.63
2023-01-20T13:16:59.353Z,10.43
2023-01-20T13:19:30.907Z,9.38
2023-01-20T13:22:10.104Z,9.90
2023-01-20T13:24:39.884Z,10.13
2023-01-20T13:27:09.994Z,9.90
2023-01-20T13:29:54.996Z,9.95
2023-01-20T13:32:45.436Z,10.23
2023-01-20T13:35:45.268Z,10.52
2023-01-20T13:38:25.036Z,9.25
2023-01-20T13:40:58.733Z,10.07
2023-01-20T13:43:58.451Z,9.15
2023-01-20T13:46:49.277Z,10.52
2023-01-20T13:49:24.210Z,11.05
2023-01-20T13:51:52.471Z,9.40
2023-01-20T13:54:46.818Z,10.13
2023-01-20T13:57:44.805Z,11.38
2023-01-20T14:00:17.182Z,10.68
2023-01-20T14:02:46.197Z,11.32
2023-01-20T14:05:29.156Z,9.95
2023-01-20T14:07:57.899Z,10.43
2023-01-20T14:10:26.091Z,10.57
2023-01-20T14:12:53.957Z,11.10
2023-01-20T14:15:34.112Z,10.18
2023-01-20T14:18:02.834Z,10.10
2023-01-20T14:20:31.658Z,9.98
2023-01-20T14:23:26.245Z,10.00
2023-01-20T14:26:02.145Z,12.43
2023-01-20T14:28:30.592Z,13.05
2023-01-20T14:31:37.892Z,14.57
2023-01-20T14:34:23.281Z,13.52
2023-01-20T14:36:52.327Z,11.63
2023-01-20T14:39:23.060Z,11.48
2023-01-20T14:41:53.139Z,10.15
2023-01-20T14:46:53.576Z,10.10
2023-01-20T14:49:23.369Z,9.20
2023-01-20T14:51:52.770Z,9.40
2023-01-20T14:54:38.208Z,9.27
2023-01-20T14:57:43.478Z,9.85
2023-01-20T15:00:20.369Z,10.77
2023-01-20T15:03:05.361Z,10.45
2023-01-20T15:08:25.485Z,9.07
2023-01-20T15:11:21.388Z,8.80
2023-01-20T15:14:13.521Z,8.75
2023-01-20T15:16:47.413Z,9.88
2023-01-20T15:19:36.166Z,9.32
2023-01-20T15:22:23.125Z,10.75
2023-01-20T15:24:51.160Z,9.60
2023-01-20T15:27:26.515Z,8.15
2023-01-20T15:30:16.882Z,8.68
2023-01-20T15:32:45.015Z,9.45
2023-01-20T15:35:15.916Z,9.48
2023-01-20T15:37:44.816Z,10.18
2023-01-20T15:40:17.953Z,10.52
2023-01-20T15:42:46.287Z,10.18
2023-01-20T15:45:15.757Z,11.00
2023-01-20T15:47:46.467Z,10.60
2023-01-20T15:50:19.670Z,11.18
2023-01-20T15:52:47.648Z,13.65
2023-01-20T15:55:17.481Z,13.65
2023-01-20T15:57:47.332Z,10.95
2023-01-20T16:00:19.990Z,12.38
2023-01-20T16:02:48.089Z,11.57
2023-01-20T16:05:17.988Z,14.07
2023-01-20T16:07:47.659Z,11.93
2023-01-20T16:10:17.567Z,12.60
2023-01-20T16:12:45.854Z,10.70
2023-01-20T16:15:18.743Z,9.70
2023-01-20T16:17:46.963Z,8.75
2023-01-20T16:20:20.812Z,8.70
2023-01-20T16:22:48.704Z,8.82
2023-01-20T16:25:16.995Z,8.32
2023-01-20T16:27:45.180Z,9.07
2023-01-20T16:30:17.100Z,10.65
2023-01-20T16:32:46.364Z,9.93
2023-01-20T16:35:17.298Z,9.65
2023-01-20T16:37:48.594Z,14.20
2023-01-20T16:40:19.952Z,25.38
2023-01-20T16:42:48.846Z,42.65
2023-01-20T16:45:26.651Z,51.58
2023-01-20T16:47:54.745Z,32.28
2023-01-20T16:50:23.295Z,15.70
2023-01-20T16:52:52.538Z,11.30
2023-01-20T16:55:20.852Z,7.90
2023-01-20T16:57:48.769Z,10.45
2023-01-20T17:00:19.171Z,10.70
2023-01-20T17:02:51.297Z,10.50
2023-01-20T17:05:22.638Z,10.50
2023-01-20T17:07:52.147Z,11.07
2023-01-20T17:10:21.282Z,10.98
2023-01-20T17:12:49.399Z,11.13
2023-01-20T17:15:17.415Z,11.25
2023-01-20T17:17:48.995Z,10.55
2023-01-20T17:20:17.622Z,10.95
2023-01-20T17:22:45.752Z,12.40
2023-01-20T17:25:18.160Z,12.75
2023-01-20T17:27:46.179Z,12.80
2023-01-20T17:30:15.681Z,15.05
2023-01-20T17:32:48.294Z,15.38
2023-01-20T17:35:16.927Z,15.05
2023-01-20T17:37:44.992Z,13.65
2023-01-20T17:40:16.063Z,13.30
2023-01-20T17:42:44.669Z,12.60
2023-01-20T17:45:13.289Z,15.32
2023-01-20T17:47:41.220Z,12.13
2023-01-20T17:50:10.169Z,12.95
2023-01-20T17:52:38.395Z,12.05
2023-01-20T17:55:07.000Z,11.82
2023-01-20T17:57:36.310Z,11.85
2023-01-20T18:00:05.461Z,13.80
2023-01-20T18:02:33.458Z,12.32
2023-01-20T18:05:01.362Z,12.38
2023-01-20T18:07:29.323Z,12.32
2023-01-20T18:09:57.279Z,12.65
2023-01-20T18:12:26.224Z,12.18
2023-01-20T18:14:55.620Z,12.65
2023-01-20T18:17:23.532Z,11.45
2023-01-20T18:19:51.497Z,12.15
2023-01-20T18:22:19.483Z,12.57
2023-01-20T18:24:47.386Z,11.32
2023-01-20T18:27:15.663Z,12.50
2023-01-20T18:29:43.796Z,10.73
2023-01-20T18:32:13.070Z,11.88
2023-01-20T18:34:43.686Z,12.10
2023-01-20T18:37:11.538Z,12.02
2023-01-20T18:39:39.436Z,14.20
2023-01-20T18:42:07.322Z,13.43
2023-01-20T18:44:35.674Z,13.68
2023-01-20T18:47:03.591Z,13.43
2023-01-20T18:49:32.864Z,12.70
2023-01-20T18:52:00.778Z,10.50
2023-01-20T18:54:32.748Z,13.07
2023-01-20T18:57:00.634Z,13.98
2023-01-20T18:59:29.059Z,12.68
2023-01-20T19:01:59.220Z,14.30
2023-01-20T19:06:56.230Z,13.20
2023-01-20T19:09:24.133Z,18.15
2023-01-20T19:11:52.027Z,21.55
2023-01-20T19:14:20.141Z,20.83
2023-01-20T19:16:49.475Z,19.92
2023-01-20T19:19:19.158Z,18.15
2023-01-20T19:21:47.220Z,18.60
2023-01-20T19:24:20.223Z,17.02
2023-01-20T19:26:48.441Z,17.10
2023-01-20T19:29:17.994Z,17.35
2023-01-20T19:31:49.569Z,19.75
2023-01-20T19:36:30.395Z,15.85
2023-01-20T19:39:00.231Z,16.67
2023-01-20T19:41:31.957Z,17.90
2023-01-20T19:44:01.255Z,17.95
2023-01-20T19:46:31.110Z,18.27
2023-01-20T19:49:00.230Z,17.40
2023-01-20T19:51:28.378Z,17.20
2023-01-20T19:53:59.521Z,17.02
2023-01-20T19:56:30.349Z,18.17
2023-01-20T19:59:00.711Z,17.73
2023-01-20T20:01:31.696Z,16.95
2023-01-20T20:04:01.051Z,17.13
2023-01-20T20:06:31.750Z,16.70
2023-01-20T20:09:03.337Z,16.08
2023-01-20T20:11:32.100Z,17.63
2023-01-20T20:14:02.284Z,18.00
2023-01-20T20:18:59.553Z,18.40
2023-01-20T20:21:28.609Z,20.42
2023-01-20T20:23:59.044Z,20.67
2023-01-20T20:26:31.070Z,22.15
2023-01-20T20:29:01.276Z,23.23
2023-01-20T20:33:58.730Z,24.08
2023-01-20T20:36:28.423Z,22.85
2023-01-20T20:38:58.398Z,24.45
2023-01-20T20:41:30.540Z,27.25
2023-01-20T20:43:59.013Z,22.52
2023-01-20T20:46:27.528Z,24.27
2023-01-20T20:48:56.163Z,24.08
2023-01-20T20:51:24.529Z,23.05
2023-01-20T20:53:55.443Z,22.25
2023-01-20T20:56:23.824Z,19.15
2023-01-20T20:59:01.430Z,17.48
2023-01-20T21:01:31.255Z,17.15
2023-01-20T21:04:00.617Z,16.13
2023-01-20T21:06:29.842Z,16.38
2023-01-20T21:08:58.705Z,15.27
2023-01-20T21:11:26.769Z,15.80
2023-01-20T21:13:56.490Z,15.35
2023-01-20T21:16:25.371Z,16.75
2023-01-20T21:18:56.223Z,15.45
2023-01-20T21:21:25.283Z,16.70
2023-01-20T21:23:55.209Z,16.05
2023-01-20T21:26:24.759Z,15.60
2023-01-20T21:28:53.958Z,15.77
2023-01-20T21:31:27.240Z,15.07
2023-01-20T21:33:58.347Z,15.75
2023-01-20T21:36:27.242Z,15.27
2023-01-20T21:38:55.763Z,15.80
2023-01-20T21:41:23.676Z,13.82
2023-01-20T21:44:09.417Z,13.10
2023-01-20T21:46:40.670Z,12.48
2023-01-20T21:49:26.752Z,11.93
2023-01-20T21:52:12.309Z,11.98
2023-01-20T21:54:41.425Z,11.82
2023-01-20T21:57:09.844Z,8.55
2023-01-20T21:59:38.157Z,11.77
2023-01-20T22:02:08.304Z,12.45
2023-01-20T22:07:04.418Z,13.00
2023-01-20T22:09:32.388Z,11.52
2023-01-20T22:12:00.699Z,11.90
2023-01-20T22:14:28.971Z,13.40
2023-01-20T22:16:56.918Z,13.63
2023-01-20T22:19:26.552Z,12.38
2023-01-20T22:21:54.591Z,11.35
2023-01-20T22:24:22.616Z,12.80
2023-01-20T22:26:51.180Z,12.23
2023-01-20T22:29:19.671Z,12.63
2023-01-20T22:31:48.434Z,12.07
2023-01-20T22:34:16.456Z,12.90
2023-01-20T22:36:46.686Z,11.25
2023-01-20T22:39:15.420Z,12.38
2023-01-20T22:41:43.518Z,13.85
2023-01-20T22:44:11.456Z,12.95
2023-01-20T22:46:39.469Z,13.18
2023-01-20T22:49:07.449Z,14.35
2023-01-20T22:51:35.449Z,14.40
2023-01-20T22:54:07.107Z,10.65
2023-01-20T22:56:35.115Z,10.90
2023-01-20T22:59:03.180Z,11.95
2023-01-20T23:01:32.800Z,10.20
2023-01-20T23:04:03.178Z,10.77
2023-01-20T23:06:33.412Z,10.23
2023-01-20T23:09:01.577Z,8.68
2023-01-20T23:11:31.098Z,8.77
2023-01-20T23:14:00.250Z,8.20
2023-01-20T23:16:28.442Z,7.40
2023-01-20T23:18:56.563Z,7.25
2023-01-20T23:21:24.758Z,7.35
2023-01-20T23:23:54.788Z,6.00
2023-01-20T23:26:25.094Z,6.15
2023-01-20T23:31:25.030Z,5.72
2023-01-20T23:33:54.909Z,5.78
2023-01-20T23:36:24.525Z,5.50
2023-01-20T23:38:54.679Z,3.40
2023-01-20T23:43:50.461Z,5.50
2023-01-20T23:46:19.929Z,5.18
2023-01-20T23:48:48.130Z,5.43
2023-01-20T23:51:16.899Z,5.10
2023-01-20T23:53:44.945Z,6.35
2023-01-20T23:56:14.822Z,7.10
2023-01-20T23:58:43.100Z,6.88
